Terminal Aerodrome Forecast
Issued by NWS Cleveland, OH

Home | Current Version | Previous Version | Graphics & Text | Print | Product List | Glossary On
Versions: 1 2 3 4 5 6 7 8 9 10 11 12 13 14 15 16 17 18 19 20 21 22 23 24 25 26 27 28 29 30 31 32 33 34 35 36 37 38 39 40 41 42 43
000
FTUS41 KCLE 060200 AAC
TAFCLE
TAF AMD
KCLE 060228Z 0602/0706 02011KT 4SM BR VCTS FEW007 BKN060CB OVC100
      TEMPO 0603/0605 2SM -SHRA BR SCT007 OVC012
     FM060500 02005KT 3SM BR VCSH BKN007 OVC012
     FM061400 VRB04KT 5SM HZ BKN012 OVC045
     FM061600 01009KT P6SM SCT045 BKN100
     FM070000 VRB03KT P6SM SCT100=

USA.gov is the U.S. government's official web portal to all federal, state and local government web resources and services.